sensor_id;sensor_type;location;lat;lon;timestamp;temperature;humidity
32839;DHT22;19182;41.820;12.808;2023-07-02T00:01:51;18.10;99.90
32839;DHT22;19182;41.820;12.808;2023-07-02T00:04:19;18.10;99.90
32839;DHT22;19182;41.820;12.808;2023-07-02T00:06:46;18.10;99.90
32839;DHT22;19182;41.820;12.808;2023-07-02T00:09:13;18.00;99.90
32839;DHT22;19182;41.820;12.808;2023-07-02T00:11:40;17.90;99.90
32839;DHT22;19182;41.820;12.808;2023-07-02T00:14:07;17.90;99.90
32839;DHT22;19182;41.820;12.808;2023-07-02T00:16:33;17.80;99.90
32839;DHT22;19182;41.820;12.808;2023-07-02T00:18:59;17.90;99.90
32839;DHT22;19182;41.820;12.808;2023-07-02T00:21:28;18.00;99.90
32839;DHT22;19182;41.820;12.808;2023-07-02T00:23:55;18.00;99.90
32839;DHT22;19182;41.820;12.808;2023-07-02T00:26:26;17.80;99.90
32839;DHT22;19182;41.820;12.808;2023-07-02T00:28:54;17.70;99.90
32839;DHT22;19182;41.820;12.808;2023-07-02T00:31:21;17.70;99.90
32839;DHT22;19182;41.820;12.808;2023-07-02T00:33:47;17.70;99.90
32839;DHT22;19182;41.820;12.808;2023-07-02T00:36:15;17.70;99.90
32839;DHT22;19182;41.820;12.808;2023-07-02T00:38:48;17.70;99.90
32839;DHT22;19182;41.820;12.808;2023-07-02T00:41:14;17.70;99.90
32839;DHT22;19182;41.820;12.808;2023-07-02T00:43:40;17.60;99.90
32839;DHT22;19182;41.820;12.808;2023-07-02T00:46:15;17.70;99.90
32839;DHT22;19182;41.820;12.808;2023-07-02T00:48:57;17.60;99.90
32839;DHT22;19182;41.820;12.808;2023-07-02T00:51:27;17.60;99.90
32839;DHT22;19182;41.820;12.808;2023-07-02T00:53:54;17.50;99.90
32839;DHT22;19182;41.820;12.808;2023-07-02T00:56:24;17.50;99.90
32839;DHT22;19182;41.820;12.808;2023-07-02T00:58:52;17.60;99.90
32839;DHT22;19182;41.820;12.808;2023-07-02T01:01:22;17.50;99.90
32839;DHT22;19182;41.820;12.808;2023-07-02T01:03:58;17.60;99.90
32839;DHT22;19182;41.820;12.808;2023-07-02T01:06:29;17.60;99.90
32839;DHT22;19182;41.820;12.808;2023-07-02T01:08:58;17.50;99.90
32839;DHT22;19182;41.820;12.808;2023-07-02T01:11:31;17.60;99.90
32839;DHT22;19182;41.820;12.808;2023-07-02T01:14:31;17.60;99.90
32839;DHT22;19182;41.820;12.808;2023-07-02T01:17:00;17.40;99.90
32839;DHT22;19182;41.820;12.808;2023-07-02T01:22:10;17.30;99.90
32839;DHT22;19182;41.820;12.808;2023-07-02T01:24:38;17.40;99.90
32839;DHT22;19182;41.820;12.808;2023-07-02T01:27:04;17.40;99.90
32839;DHT22;19182;41.820;12.808;2023-07-02T01:29:30;17.50;99.90
32839;DHT22;19182;41.820;12.808;2023-07-02T01:31:56;17.40;99.90
32839;DHT22;19182;41.820;12.808;2023-07-02T01:34:22;17.40;99.90
32839;DHT22;19182;41.820;12.808;2023-07-02T01:36:48;17.30;99.90
32839;DHT22;19182;41.820;12.808;2023-07-02T01:39:14;17.30;99.90
32839;DHT22;19182;41.820;12.808;2023-07-02T01:41:55;17.40;99.90
32839;DHT22;19182;41.820;12.808;2023-07-02T01:44:22;17.30;99.90
32839;DHT22;19182;41.820;12.808;2023-07-02T01:46:49;17.30;99.90
32839;DHT22;19182;41.820;12.808;2023-07-02T01:49:18;17.20;99.90
32839;DHT22;19182;41.820;12.808;2023-07-02T01:51:49;17.20;99.90
32839;DHT22;19182;41.820;12.808;2023-07-02T01:54:14;17.20;99.90
32839;DHT22;19182;41.820;12.808;2023-07-02T01:56:40;17.20;99.90
32839;DHT22;19182;41.820;12.808;2023-07-02T01:59:06;17.20;99.90
32839;DHT22;19182;41.820;12.808;2023-07-02T02:01:32;17.30;99.90
32839;DHT22;19182;41.820;12.808;2023-07-02T02:03:58;17.30;99.90
32839;DHT22;19182;41.820;12.808;2023-07-02T02:06:27;17.30;99.90
32839;DHT22;19182;41.820;12.808;2023-07-02T02:08:53;17.30;99.90
32839;DHT22;19182;41.820;12.808;2023-07-02T02:11:18;17.30;99.90
32839;DHT22;19182;41.820;12.808;2023-07-02T02:13:44;17.30;99.90
32839;DHT22;19182;41.820;12.808;2023-07-02T02:16:10;17.40;99.90
32839;DHT22;19182;41.820;12.808;2023-07-02T02:18:35;17.40;99.90
32839;DHT22;19182;41.820;12.808;2023-07-02T02:21:01;17.40;99.90
32839;DHT22;19182;41.820;12.808;2023-07-02T02:23:27;17.40;99.90
32839;DHT22;19182;41.820;12.808;2023-07-02T02:25:52;17.30;99.90
32839;DHT22;19182;41.820;12.808;2023-07-02T02:28:19;17.40;99.90
32839;DHT22;19182;41.820;12.808;2023-07-02T02:30:45;17.40;99.90
32839;DHT22;19182;41.820;12.808;2023-07-02T02:33:12;17.30;99.90
32839;DHT22;19182;41.820;12.808;2023-07-02T02:35:37;17.30;99.90
32839;DHT22;19182;41.820;12.808;2023-07-02T02:38:05;17.30;99.90
32839;DHT22;19182;41.820;12.808;2023-07-02T02:40:30;17.20;99.90
32839;DHT22;19182;41.820;12.808;2023-07-02T02:42:56;17.10;99.90
32839;DHT22;19182;41.820;12.808;2023-07-02T02:45:22;17.20;99.90
32839;DHT22;19182;41.820;12.808;2023-07-02T02:47:49;17.30;99.90
32839;DHT22;19182;41.820;12.808;2023-07-02T02:50:14;17.20;99.90
32839;DHT22;19182;41.820;12.808;2023-07-02T02:52:41;17.10;99.90
32839;DHT22;19182;41.820;12.808;2023-07-02T02:55:08;17.10;99.90
32839;DHT22;19182;41.820;12.808;2023-07-02T02:57:34;17.00;99.90
32839;DHT22;19182;41.820;12.808;2023-07-02T03:00:01;17.00;99.90
32839;DHT22;19182;41.820;12.808;2023-07-02T03:02:26;17.10;99.90
32839;DHT22;19182;41.820;12.808;2023-07-02T03:04:52;17.00;99.90
32839;DHT22;19182;41.820;12.808;2023-07-02T03:07:19;17.10;99.90
32839;DHT22;19182;41.820;12.808;2023-07-02T03:09:45;17.20;99.90
32839;DHT22;19182;41.820;12.808;2023-07-02T03:12:10;17.10;99.90
32839;DHT22;19182;41.820;12.808;2023-07-02T03:14:36;17.20;99.90
32839;DHT22;19182;41.820;12.808;2023-07-02T03:17:02;17.20;99.90
32839;DHT22;19182;41.820;12.808;2023-07-02T03:19:28;17.20;99.90
32839;DHT22;19182;41.820;12.808;2023-07-02T03:21:54;17.20;99.90
32839;DHT22;19182;41.820;12.808;2023-07-02T03:24:21;17.20;99.90
32839;DHT22;19182;41.820;12.808;2023-07-02T03:26:47;17.30;99.90
32839;DHT22;19182;41.820;12.808;2023-07-02T03:29:13;17.30;99.90
32839;DHT22;19182;41.820;12.808;2023-07-02T03:31:39;17.20;99.90
32839;DHT22;19182;41.820;12.808;2023-07-02T03:34:09;17.20;99.90
32839;DHT22;19182;41.820;12.808;2023-07-02T03:36:36;17.20;99.90
32839;DHT22;19182;41.820;12.808;2023-07-02T03:39:04;17.20;99.90
32839;DHT22;19182;41.820;12.808;2023-07-02T03:41:31;17.20;99.90
32839;DHT22;19182;41.820;12.808;2023-07-02T03:43:57;17.20;99.90
32839;DHT22;19182;41.820;12.808;2023-07-02T03:46:24;17.30;99.90
32839;DHT22;19182;41.820;12.808;2023-07-02T03:48:49;17.30;99.90
32839;DHT22;19182;41.820;12.808;2023-07-02T03:51:15;17.30;99.90
32839;DHT22;19182;41.820;12.808;2023-07-02T03:53:41;17.30;99.90
32839;DHT22;19182;41.820;12.808;2023-07-02T03:56:07;17.30;99.90
32839;DHT22;19182;41.820;12.808;2023-07-02T03:58:33;17.30;99.90
32839;DHT22;19182;41.820;12.808;2023-07-02T04:00:59;17.30;99.90
32839;DHT22;19182;41.820;12.808;2023-07-02T04:03:25;17.40;99.90
32839;DHT22;19182;41.820;12.808;2023-07-02T04:05:51;17.20;99.90
32839;DHT22;19182;41.820;12.808;2023-07-02T04:08:16;17.20;99.90
32839;DHT22;19182;41.820;12.808;2023-07-02T04:10:42;17.30;99.90
32839;DHT22;19182;41.820;12.808;2023-07-02T04:13:09;17.40;99.90
32839;DHT22;19182;41.820;12.808;2023-07-02T04:15:35;17.30;99.90
32839;DHT22;19182;41.820;12.808;2023-07-02T04:18:02;17.30;99.90
32839;DHT22;19182;41.820;12.808;2023-07-02T04:20:28;17.30;99.90
32839;DHT22;19182;41.820;12.808;2023-07-02T04:22:57;17.30;99.90
32839;DHT22;19182;41.820;12.808;2023-07-02T04:25:23;17.30;99.90
32839;DHT22;19182;41.820;12.808;2023-07-02T04:27:49;17.40;99.90
32839;DHT22;19182;41.820;12.808;2023-07-02T04:30:14;17.40;99.90
32839;DHT22;19182;41.820;12.808;2023-07-02T04:32:40;17.50;99.90
32839;DHT22;19182;41.820;12.808;2023-07-02T04:35:07;17.60;99.90
32839;DHT22;19182;41.820;12.808;2023-07-02T04:37:33;17.60;99.90
32839;DHT22;19182;41.820;12.808;2023-07-02T04:39:59;17.60;99.90
32839;DHT22;19182;41.820;12.808;2023-07-02T04:42:26;17.60;99.90
32839;DHT22;19182;41.820;12.808;2023-07-02T04:44:57;17.70;99.90
32839;DHT22;19182;41.820;12.808;2023-07-02T04:47:29;17.80;99.90
32839;DHT22;19182;41.820;12.808;2023-07-02T04:49:54;17.90;99.90
32839;DHT22;19182;41.820;12.808;2023-07-02T04:52:20;17.90;99.90
32839;DHT22;19182;41.820;12.808;2023-07-02T04:54:46;18.00;99.90
32839;DHT22;19182;41.820;12.808;2023-07-02T04:57:11;18.10;99.90
32839;DHT22;19182;41.820;12.808;2023-07-02T04:59:39;18.20;99.90
32839;DHT22;19182;41.820;12.808;2023-07-02T05:02:04;18.40;99.90
32839;DHT22;19182;41.820;12.808;2023-07-02T05:04:31;18.40;99.90
32839;DHT22;19182;41.820;12.808;2023-07-02T05:06:57;18.50;99.90
32839;DHT22;19182;41.820;12.808;2023-07-02T05:09:22;18.60;99.90
32839;DHT22;19182;41.820;12.808;2023-07-02T05:11:48;18.70;99.90
32839;DHT22;19182;41.820;12.808;2023-07-02T05:14:14;18.70;99.90
32839;DHT22;19182;41.820;12.808;2023-07-02T05:16:39;18.70;99.90
32839;DHT22;19182;41.820;12.808;2023-07-02T05:19:05;18.80;99.90
32839;DHT22;19182;41.820;12.808;2023-07-02T05:21:32;18.80;99.90
32839;DHT22;19182;41.820;12.808;2023-07-02T05:23:59;19.10;99.90
32839;DHT22;19182;41.820;12.808;2023-07-02T05:26:25;19.00;99.90
32839;DHT22;19182;41.820;12.808;2023-07-02T05:28:52;19.00;99.90
32839;DHT22;19182;41.820;12.808;2023-07-02T05:31:18;19.20;99.90
32839;DHT22;19182;41.820;12.808;2023-07-02T05:33:44;19.40;99.90
32839;DHT22;19182;41.820;12.808;2023-07-02T05:36:10;19.40;99.90
32839;DHT22;19182;41.820;12.808;2023-07-02T05:38:36;19.50;99.90
32839;DHT22;19182;41.820;12.808;2023-07-02T05:41:02;19.60;99.90
32839;DHT22;19182;41.820;12.808;2023-07-02T05:43:31;19.80;99.90
32839;DHT22;19182;41.820;12.808;2023-07-02T05:46:00;19.90;99.90
32839;DHT22;19182;41.820;12.808;2023-07-02T05:48:26;19.90;99.90
32839;DHT22;19182;41.820;12.808;2023-07-02T05:50:53;20.10;99.90
32839;DHT22;19182;41.820;12.808;2023-07-02T05:53:19;20.20;99.90
32839;DHT22;19182;41.820;12.808;2023-07-02T05:55:46;20.40;99.90
32839;DHT22;19182;41.820;12.808;2023-07-02T05:58:13;20.40;99.90
32839;DHT22;19182;41.820;12.808;2023-07-02T06:00:38;20.50;99.90
32839;DHT22;19182;41.820;12.808;2023-07-02T06:03:08;20.40;99.90
32839;DHT22;19182;41.820;12.808;2023-07-02T06:05:33;20.60;99.90
32839;DHT22;19182;41.820;12.808;2023-07-02T06:07:59;20.70;99.90
32839;DHT22;19182;41.820;12.808;2023-07-02T06:10:27;20.80;99.90
32839;DHT22;19182;41.820;12.808;2023-07-02T06:12:54;21.00;99.90
32839;DHT22;19182;41.820;12.808;2023-07-02T06:15:20;21.20;99.90
32839;DHT22;19182;41.820;12.808;2023-07-02T06:17:46;21.40;99.90
32839;DHT22;19182;41.820;12.808;2023-07-02T06:20:12;21.60;99.90
32839;DHT22;19182;41.820;12.808;2023-07-02T06:22:38;21.90;99.90
32839;DHT22;19182;41.820;12.808;2023-07-02T06:25:05;22.00;99.90
32839;DHT22;19182;41.820;12.808;2023-07-02T06:27:31;22.20;99.90
32839;DHT22;19182;41.820;12.808;2023-07-02T06:29:57;22.40;99.90
32839;DHT22;19182;41.820;12.808;2023-07-02T06:32:24;22.50;99.90
32839;DHT22;19182;41.820;12.808;2023-07-02T06:34:50;22.60;99.90
32839;DHT22;19182;41.820;12.808;2023-07-02T06:37:15;22.80;99.90
32839;DHT22;19182;41.820;12.808;2023-07-02T06:39:41;22.90;99.90
32839;DHT22;19182;41.820;12.808;2023-07-02T06:42:07;23.10;99.90
32839;DHT22;19182;41.820;12.808;2023-07-02T06:44:34;23.20;99.90
32839;DHT22;19182;41.820;12.808;2023-07-02T06:47:00;23.40;99.90
32839;DHT22;19182;41.820;12.808;2023-07-02T06:49:25;23.50;99.90
32839;DHT22;19182;41.820;12.808;2023-07-02T06:51:51;23.70;99.90
32839;DHT22;19182;41.820;12.808;2023-07-02T06:54:17;23.70;99.90
32839;DHT22;19182;41.820;12.808;2023-07-02T06:56:42;23.90;99.90
32839;DHT22;19182;41.820;12.808;2023-07-02T06:59:09;23.80;99.90
32839;DHT22;19182;41.820;12.808;2023-07-02T07:01:35;23.90;99.90
32839;DHT22;19182;41.820;12.808;2023-07-02T07:04:03;24.30;99.90
32839;DHT22;19182;41.820;12.808;2023-07-02T07:06:29;24.50;99.90
32839;DHT22;19182;41.820;12.808;2023-07-02T07:09:00;24.60;99.90
32839;DHT22;19182;41.820;12.808;2023-07-02T07:11:27;24.90;99.90
32839;DHT22;19182;41.820;12.808;2023-07-02T07:13:53;25.20;99.90
32839;DHT22;19182;41.820;12.808;2023-07-02T07:16:20;25.40;99.90
32839;DHT22;19182;41.820;12.808;2023-07-02T07:18:45;25.50;99.90
32839;DHT22;19182;41.820;12.808;2023-07-02T07:21:11;25.80;99.90
32839;DHT22;19182;41.820;12.808;2023-07-02T07:23:37;26.10;99.90
32839;DHT22;19182;41.820;12.808;2023-07-02T07:26:02;26.40;99.90
32839;DHT22;19182;41.820;12.808;2023-07-02T07:28:28;26.50;99.90
32839;DHT22;19182;41.820;12.808;2023-07-02T07:30:54;26.50;99.90
32839;DHT22;19182;41.820;12.808;2023-07-02T07:33:19;26.60;99.90
32839;DHT22;19182;41.820;12.808;2023-07-02T07:35:45;26.60;99.90
32839;DHT22;19182;41.820;12.808;2023-07-02T07:38:13;26.70;99.90
32839;DHT22;19182;41.820;12.808;2023-07-02T07:40:39;26.90;99.90
32839;DHT22;19182;41.820;12.808;2023-07-02T07:43:05;27.10;99.90
32839;DHT22;19182;41.820;12.808;2023-07-02T07:45:31;30.00;99.90
32839;DHT22;19182;41.820;12.808;2023-07-02T07:47:58;27.20;99.90
32839;DHT22;19182;41.820;12.808;2023-07-02T07:50:24;27.20;99.90
32839;DHT22;19182;41.820;12.808;2023-07-02T07:52:49;27.40;99.90
32839;DHT22;19182;41.820;12.808;2023-07-02T07:55:17;27.60;99.90
32839;DHT22;19182;41.820;12.808;2023-07-02T07:57:42;27.60;99.90
32839;DHT22;19182;41.820;12.808;2023-07-02T08:00:09;27.70;99.90
32839;DHT22;19182;41.820;12.808;2023-07-02T08:02:38;27.70;99.90
32839;DHT22;19182;41.820;12.808;2023-07-02T08:05:04;27.70;99.90
32839;DHT22;19182;41.820;12.808;2023-07-02T08:07:33;27.80;99.90
32839;DHT22;19182;41.820;12.808;2023-07-02T08:09:59;27.90;99.90
32839;DHT22;19182;41.820;12.808;2023-07-02T08:12:25;28.20;99.90
32839;DHT22;19182;41.820;12.808;2023-07-02T08:14:55;28.30;99.90
32839;DHT22;19182;41.820;12.808;2023-07-02T08:17:21;28.20;99.90
32839;DHT22;19182;41.820;12.808;2023-07-02T08:19:47;28.30;99.90
32839;DHT22;19182;41.820;12.808;2023-07-02T08:22:13;28.40;99.90
32839;DHT22;19182;41.820;12.808;2023-07-02T08:24:39;28.20;99.90
32839;DHT22;19182;41.820;12.808;2023-07-02T08:27:05;28.40;99.90
32839;DHT22;19182;41.820;12.808;2023-07-02T08:29:31;28.60;99.90
32839;DHT22;19182;41.820;12.808;2023-07-02T08:31:57;28.80;99.90
32839;DHT22;19182;41.820;12.808;2023-07-02T08:34:22;28.90;99.90
32839;DHT22;19182;41.820;12.808;2023-07-02T08:36:49;28.90;99.90
32839;DHT22;19182;41.820;12.808;2023-07-02T08:39:17;29.10;99.90
32839;DHT22;19182;41.820;12.808;2023-07-02T08:41:44;29.20;99.90
32839;DHT22;19182;41.820;12.808;2023-07-02T08:44:14;29.30;99.90
32839;DHT22;19182;41.820;12.808;2023-07-02T08:46:41;29.70;99.90
32839;DHT22;19182;41.820;12.808;2023-07-02T08:49:11;29.50;99.90
32839;DHT22;19182;41.820;12.808;2023-07-02T08:51:38;29.70;99.90
32839;DHT22;19182;41.820;12.808;2023-07-02T08:54:04;29.80;99.90
32839;DHT22;19182;41.820;12.808;2023-07-02T08:56:30;29.80;99.90
32839;DHT22;19182;41.820;12.808;2023-07-02T08:58:56;29.90;99.90
32839;DHT22;19182;41.820;12.808;2023-07-02T09:01:23;30.20;99.90
32839;DHT22;19182;41.820;12.808;2023-07-02T09:03:50;30.30;99.90
32839;DHT22;19182;41.820;12.808;2023-07-02T09:06:18;30.20;99.90
32839;DHT22;19182;41.820;12.808;2023-07-02T09:08:44;30.10;99.90
32839;DHT22;19182;41.820;12.808;2023-07-02T09:11:15;30.10;99.90
32839;DHT22;19182;41.820;12.808;2023-07-02T09:13:50;30.30;99.90
32839;DHT22;19182;41.820;12.808;2023-07-02T09:16:32;30.40;99.90
32839;DHT22;19182;41.820;12.808;2023-07-02T09:19:06;30.60;99.90
32839;DHT22;19182;41.820;12.808;2023-07-02T09:21:43;30.70;99.90
32839;DHT22;19182;41.820;12.808;2023-07-02T09:24:20;30.90;99.90
32839;DHT22;19182;41.820;12.808;2023-07-02T09:26:53;31.10;99.90
32839;DHT22;19182;41.820;12.808;2023-07-02T09:32:05;31.00;99.90
32839;DHT22;19182;41.820;12.808;2023-07-02T09:34:35;31.20;99.90
32839;DHT22;19182;41.820;12.808;2023-07-02T09:37:03;31.30;99.90
32839;DHT22;19182;41.820;12.808;2023-07-02T09:39:31;31.20;99.90
32839;DHT22;19182;41.820;12.808;2023-07-02T09:41:59;31.20;99.90
32839;DHT22;19182;41.820;12.808;2023-07-02T09:44:30;31.20;99.90
32839;DHT22;19182;41.820;12.808;2023-07-02T09:47:06;31.30;99.90
32839;DHT22;19182;41.820;12.808;2023-07-02T09:49:36;31.50;99.90
32839;DHT22;19182;41.820;12.808;2023-07-02T09:52:10;31.80;99.90
32839;DHT22;19182;41.820;12.808;2023-07-02T09:54:36;32.00;99.90
32839;DHT22;19182;41.820;12.808;2023-07-02T09:57:03;32.10;99.90
32839;DHT22;19182;41.820;12.808;2023-07-02T09:59:29;31.90;99.90
32839;DHT22;19182;41.820;12.808;2023-07-02T10:01:56;32.10;99.90
32839;DHT22;19182;41.820;12.808;2023-07-02T10:04:22;32.20;99.90
32839;DHT22;19182;41.820;12.808;2023-07-02T10:06:51;31.80;99.90
32839;DHT22;19182;41.820;12.808;2023-07-02T10:09:19;31.50;99.90
32839;DHT22;19182;41.820;12.808;2023-07-02T10:11:46;30.80;99.90
32839;DHT22;19182;41.820;12.808;2023-07-02T10:14:12;30.70;99.90
32839;DHT22;19182;41.820;12.808;2023-07-02T10:16:52;31.10;99.90
32839;DHT22;19182;41.820;12.808;2023-07-02T10:19:18;31.50;99.90
32839;DHT22;19182;41.820;12.808;2023-07-02T10:21:44;31.70;99.90
32839;DHT22;19182;41.820;12.808;2023-07-02T10:24:16;31.70;99.90
32839;DHT22;19182;41.820;12.808;2023-07-02T10:26:59;31.50;99.90
32839;DHT22;19182;41.820;12.808;2023-07-02T10:29:27;31.20;99.90
32839;DHT22;19182;41.820;12.808;2023-07-02T10:31:57;31.10;99.90
32839;DHT22;19182;41.820;12.808;2023-07-02T10:34:34;30.70;99.90
32839;DHT22;19182;41.820;12.808;2023-07-02T10:37:01;30.80;99.90
32839;DHT22;19182;41.820;12.808;2023-07-02T10:39:31;30.70;99.90
32839;DHT22;19182;41.820;12.808;2023-07-02T10:42:07;30.50;99.90
32839;DHT22;19182;41.820;12.808;2023-07-02T10:44:33;30.50;99.90
32839;DHT22;19182;41.820;12.808;2023-07-02T10:46:59;30.80;99.90
32839;DHT22;19182;41.820;12.808;2023-07-02T10:49:32;31.00;99.90
32839;DHT22;19182;41.820;12.808;2023-07-02T10:52:01;31.40;99.90
32839;DHT22;19182;41.820;12.808;2023-07-02T10:54:47;31.90;99.90
32839;DHT22;19182;41.820;12.808;2023-07-02T10:57:19;32.10;99.90
32839;DHT22;19182;41.820;12.808;2023-07-02T10:59:49;32.00;99.90
32839;DHT22;19182;41.820;12.808;2023-07-02T11:02:17;32.10;99.90
32839;DHT22;19182;41.820;12.808;2023-07-02T11:04:42;32.50;99.90
32839;DHT22;19182;41.820;12.808;2023-07-02T11:07:10;32.70;99.90
32839;DHT22;19182;41.820;12.808;2023-07-02T11:09:36;32.90;99.90
32839;DHT22;19182;41.820;12.808;2023-07-02T11:12:02;33.00;99.90
32839;DHT22;19182;41.820;12.808;2023-07-02T11:16:57;33.10;99.90
32839;DHT22;19182;41.820;12.808;2023-07-02T11:19:23;32.90;99.90
32839;DHT22;19182;41.820;12.808;2023-07-02T11:21:53;32.60;99.90
32839;DHT22;19182;41.820;12.808;2023-07-02T11:24:35;32.30;99.90
32839;DHT22;19182;41.820;12.808;2023-07-02T11:27:03;32.50;99.90
32839;DHT22;19182;41.820;12.808;2023-07-02T11:29:33;32.70;99.90
32839;DHT22;19182;41.820;12.808;2023-07-02T11:32:10;33.00;99.90
32839;DHT22;19182;41.820;12.808;2023-07-02T11:34:38;33.20;99.90
32839;DHT22;19182;41.820;12.808;2023-07-02T11:37:06;33.20;99.90
32839;DHT22;19182;41.820;12.808;2023-07-02T11:39:32;32.70;99.90
32839;DHT22;19182;41.820;12.808;2023-07-02T11:41:58;32.30;99.90
32839;DHT22;19182;41.820;12.808;2023-07-02T11:44:24;31.70;99.90
32839;DHT22;19182;41.820;12.808;2023-07-02T11:46:50;31.90;99.90
32839;DHT22;19182;41.820;12.808;2023-07-02T11:49:15;31.90;99.90
32839;DHT22;19182;41.820;12.808;2023-07-02T11:51:43;32.00;99.90
32839;DHT22;19182;41.820;12.808;2023-07-02T11:54:14;32.20;99.90
32839;DHT22;19182;41.820;12.808;2023-07-02T11:56:41;30.40;99.90
32839;DHT22;19182;41.820;12.808;2023-07-02T11:59:09;32.10;99.90
32839;DHT22;19182;41.820;12.808;2023-07-02T12:01:36;31.30;99.90
32839;DHT22;19182;41.820;12.808;2023-07-02T12:04:03;31.20;99.90
32839;DHT22;19182;41.820;12.808;2023-07-02T12:06:31;31.40;99.90
32839;DHT22;19182;41.820;12.808;2023-07-02T12:08:57;31.50;99.90
32839;DHT22;19182;41.820;12.808;2023-07-02T12:11:22;32.00;99.90
32839;DHT22;19182;41.820;12.808;2023-07-02T12:13:49;32.30;99.90
32839;DHT22;19182;41.820;12.808;2023-07-02T12:16:15;32.30;99.90
32839;DHT22;19182;41.820;12.808;2023-07-02T12:18:41;32.50;99.90
32839;DHT22;19182;41.820;12.808;2023-07-02T12:21:07;32.60;99.90
32839;DHT22;19182;41.820;12.808;2023-07-02T12:23:33;32.60;99.90
32839;DHT22;19182;41.820;12.808;2023-07-02T12:25:58;32.70;99.90
32839;DHT22;19182;41.820;12.808;2023-07-02T12:28:24;32.70;99.90
32839;DHT22;19182;41.820;12.808;2023-07-02T12:30:50;32.60;99.90
32839;DHT22;19182;41.820;12.808;2023-07-02T12:33:15;32.70;99.90
32839;DHT22;19182;41.820;12.808;2023-07-02T12:35:41;33.00;99.90
32839;DHT22;19182;41.820;12.808;2023-07-02T12:38:07;33.20;99.90
32839;DHT22;19182;41.820;12.808;2023-07-02T12:40:34;33.30;99.90
32839;DHT22;19182;41.820;12.808;2023-07-02T12:42:59;32.80;99.90
32839;DHT22;19182;41.820;12.808;2023-07-02T12:45:26;32.30;99.90
32839;DHT22;19182;41.820;12.808;2023-07-02T12:47:54;31.90;99.90
32839;DHT22;19182;41.820;12.808;2023-07-02T12:50:20;32.00;99.90
32839;DHT22;19182;41.820;12.808;2023-07-02T12:52:46;32.20;99.90
32839;DHT22;19182;41.820;12.808;2023-07-02T12:55:13;32.50;99.90
32839;DHT22;19182;41.820;12.808;2023-07-02T12:57:39;32.60;99.90
32839;DHT22;19182;41.820;12.808;2023-07-02T13:00:06;32.50;99.90
32839;DHT22;19182;41.820;12.808;2023-07-02T13:02:34;32.00;99.90
32839;DHT22;19182;41.820;12.808;2023-07-02T13:05:01;31.70;99.90
32839;DHT22;19182;41.820;12.808;2023-07-02T13:07:29;31.50;99.90
32839;DHT22;19182;41.820;12.808;2023-07-02T13:09:56;31.20;99.90
32839;DHT22;19182;41.820;12.808;2023-07-02T13:12:21;31.20;99.90
32839;DHT22;19182;41.820;12.808;2023-07-02T13:14:47;31.50;99.90
32839;DHT22;19182;41.820;12.808;2023-07-02T13:17:13;31.70;99.90
32839;DHT22;19182;41.820;12.808;2023-07-02T13:19:41;31.90;99.90
32839;DHT22;19182;41.820;12.808;2023-07-02T13:22:07;31.80;99.90
32839;DHT22;19182;41.820;12.808;2023-07-02T13:24:34;31.90;99.90
32839;DHT22;19182;41.820;12.808;2023-07-02T13:27:02;31.90;99.90
32839;DHT22;19182;41.820;12.808;2023-07-02T13:29:29;32.00;99.90
32839;DHT22;19182;41.820;12.808;2023-07-02T13:31:56;32.00;99.90
32839;DHT22;19182;41.820;12.808;2023-07-02T13:34:22;32.10;99.90
32839;DHT22;19182;41.820;12.808;2023-07-02T13:36:48;32.40;99.90
32839;DHT22;19182;41.820;12.808;2023-07-02T13:39:14;32.50;99.90
32839;DHT22;19182;41.820;12.808;2023-07-02T13:41:40;32.50;99.90
32839;DHT22;19182;41.820;12.808;2023-07-02T13:44:05;32.20;99.90
32839;DHT22;19182;41.820;12.808;2023-07-02T13:46:31;32.40;99.90
32839;DHT22;19182;41.820;12.808;2023-07-02T13:48:58;32.60;99.90
32839;DHT22;19182;41.820;12.808;2023-07-02T13:51:25;32.90;99.90
32839;DHT22;19182;41.820;12.808;2023-07-02T13:53:53;32.90;99.90
32839;DHT22;19182;41.820;12.808;2023-07-02T13:56:19;33.00;99.90
32839;DHT22;19182;41.820;12.808;2023-07-02T14:01:23;31.10;99.90
32839;DHT22;19182;41.820;12.808;2023-07-02T14:03:49;32.00;99.90
32839;DHT22;19182;41.820;12.808;2023-07-02T14:06:18;31.40;99.90
32839;DHT22;19182;41.820;12.808;2023-07-02T14:08:44;31.00;99.90
32839;DHT22;19182;41.820;12.808;2023-07-02T14:11:10;30.70;99.90
32839;DHT22;19182;41.820;12.808;2023-07-02T14:13:39;30.50;99.90
32839;DHT22;19182;41.820;12.808;2023-07-02T14:16:04;30.70;99.90
32839;DHT22;19182;41.820;12.808;2023-07-02T14:18:30;31.00;99.90
32839;DHT22;19182;41.820;12.808;2023-07-02T14:20:56;31.10;99.90
32839;DHT22;19182;41.820;12.808;2023-07-02T14:23:25;31.20;99.90
32839;DHT22;19182;41.820;12.808;2023-07-02T14:25:50;31.20;99.90
32839;DHT22;19182;41.820;12.808;2023-07-02T14:28:18;31.00;99.90
32839;DHT22;19182;41.820;12.808;2023-07-02T14:30:44;30.90;99.90
32839;DHT22;19182;41.820;12.808;2023-07-02T14:33:10;30.80;99.90
32839;DHT22;19182;41.820;12.808;2023-07-02T14:35:37;31.00;99.90
32839;DHT22;19182;41.820;12.808;2023-07-02T14:38:03;30.70;99.90
32839;DHT22;19182;41.820;12.808;2023-07-02T14:40:29;30.70;99.90
32839;DHT22;19182;41.820;12.808;2023-07-02T14:42:57;30.80;99.90
32839;DHT22;19182;41.820;12.808;2023-07-02T14:45:23;30.90;99.90
32839;DHT22;19182;41.820;12.808;2023-07-02T14:47:51;31.00;99.90
32839;DHT22;19182;41.820;12.808;2023-07-02T14:50:16;30.90;99.90
32839;DHT22;19182;41.820;12.808;2023-07-02T14:52:43;30.90;99.90
32839;DHT22;19182;41.820;12.808;2023-07-02T14:55:10;30.90;99.90
32839;DHT22;19182;41.820;12.808;2023-07-02T14:57:36;30.80;99.90
32839;DHT22;19182;41.820;12.808;2023-07-02T15:00:02;30.70;99.90
32839;DHT22;19182;41.820;12.808;2023-07-02T15:02:28;30.70;99.90
32839;DHT22;19182;41.820;12.808;2023-07-02T15:04:57;30.50;99.90
32839;DHT22;19182;41.820;12.808;2023-07-02T15:07:22;30.40;99.90
32839;DHT22;19182;41.820;12.808;2023-07-02T15:09:48;30.30;99.90
32839;DHT22;19182;41.820;12.808;2023-07-02T15:12:14;30.30;99.90
32839;DHT22;19182;41.820;12.808;2023-07-02T15:14:42;30.20;99.90
32839;DHT22;19182;41.820;12.808;2023-07-02T15:17:07;30.20;99.90
32839;DHT22;19182;41.820;12.808;2023-07-02T15:19:33;30.20;99.90
32839;DHT22;19182;41.820;12.808;2023-07-02T15:21:59;30.30;99.90
32839;DHT22;19182;41.820;12.808;2023-07-02T15:24:25;30.20;99.90
32839;DHT22;19182;41.820;12.808;2023-07-02T15:26:50;30.10;99.90